Time;durP1;ratioP1;P1;durP2;ratioP2;P2;SDS_P1;SDS_P2;PMS_P1;PMS_P2;Temp;Humidity;BMP_temperature;BMP_pressure;BME280_temperature;BME280_humidity;BME280_pressure;Samples;Min_cycle;Max_cycle;Signal;HPM_P1;HPM_P2
2023/03/16 00:00:30;;;;;;;3.22;2.20;;;22.20;66.60;;;;;;6086844;28;89020;-69
2023/03/16 00:03:33;;;;;;;2.40;2.20;;;22.20;66.60;;;;;;6088251;28;89090;-70
2023/03/16 00:06:35;;;;;;;2.58;2.38;;;22.20;66.60;;;;;;6087720;28;90936;-70
2023/03/16 00:09:39;;;;;;;3.05;2.72;;;22.20;66.60;;;;;;6077924;28;89084;-70
2023/03/16 00:12:43;;;;;;;2.60;2.40;;;22.20;66.60;;;;;;6085014;28;89037;-70
2023/03/16 00:15:52;;;;;;;3.17;2.88;;;22.20;66.60;;;;;;6087074;28;89199;-69
2023/03/16 00:18:54;;;;;;;3.00;2.67;;;22.20;66.60;;;;;;6088163;28;87759;-70
2023/03/16 00:21:56;;;;;;;3.38;3.05;;;22.20;66.70;;;;;;6088084;28;89064;-70
2023/03/16 00:24:58;;;;;;;3.20;2.90;;;22.10;66.60;;;;;;6092556;28;89150;-70
2023/03/16 00:28:02;;;;;;;3.38;3.08;;;22.10;66.60;;;;;;6098262;28;87262;-69
2023/03/16 00:31:10;;;;;;;4.18;3.72;;;22.10;66.60;;;;;;6087240;28;89201;-70
2023/03/16 00:34:14;;;;;;;4.13;3.58;;;22.20;67.50;;;;;;6087898;28;89248;-70
2023/03/16 00:37:17;;;;;;;3.65;3.33;;;22.10;66.60;;;;;;6075546;28;90204;-69
2023/03/16 00:40:20;;;;;;;3.55;3.25;;;22.10;66.60;;;;;;6087246;28;89163;-70
2023/03/16 00:43:22;;;;;;;3.85;3.53;;;22.10;66.60;;;;;;6087316;28;87979;-69
2023/03/16 00:46:26;;;;;;;3.78;3.47;;;22.10;66.60;;;;;;6086171;28;89411;-70
2023/03/16 00:49:28;;;;;;;4.43;3.88;;;22.10;66.60;;;;;;6087486;28;89018;-70
2023/03/16 00:52:30;;;;;;;4.43;4.03;;;22.10;66.60;;;;;;6086091;28;89412;-70
2023/03/16 00:55:32;;;;;;;4.68;4.15;;;22.10;66.60;;;;;;6086874;28;89424;-69
2023/03/16 00:58:36;;;;;;;4.53;4.03;;;22.10;66.70;;;;;;6086584;28;88420;-69
2023/03/16 01:01:40;;;;;;;4.63;4.22;;;22.10;66.60;;;;;;6078253;28;89069;-70
2023/03/16 01:04:43;;;;;;;4.50;4.10;;;22.10;66.70;;;;;;6093200;28;89018;-69
2023/03/16 01:07:45;;;;;;;4.45;4.05;;;22.00;66.50;;;;;;6108320;28;90023;-70
2023/03/16 01:10:47;;;;;;;4.50;4.10;;;22.00;66.50;;;;;;6090774;28;89418;-70
2023/03/16 01:13:53;;;;;;;4.70;4.28;;;22.00;66.50;;;;;;6084197;28;89550;-69
2023/03/16 01:16:56;;;;;;;5.07;4.55;;;22.00;66.60;;;;;;6087174;28;90096;-69
2023/03/16 01:19:58;;;;;;;4.93;4.43;;;22.00;66.60;;;;;;6097459;28;89145;-70
2023/03/16 01:23:01;;;;;;;4.70;4.25;;;22.00;66.60;;;;;;6098435;28;89041;-69
2023/03/16 01:26:03;;;;;;;4.68;4.28;;;22.00;66.60;;;;;;6095105;28;89221;-70
2023/03/16 01:29:05;;;;;;;4.68;4.28;;;22.00;66.60;;;;;;6085224;28;88661;-69
2023/03/16 01:32:09;;;;;;;4.63;4.15;;;22.00;66.60;;;;;;6086362;28;89265;-70
2023/03/16 01:35:11;;;;;;;4.60;4.20;;;22.00;66.60;;;;;;6076179;28;89144;-70
2023/03/16 01:38:14;;;;;;;4.13;3.80;;;22.00;66.60;;;;;;6085653;28;88924;-69
2023/03/16 01:41:16;;;;;;;4.70;4.28;;;22.00;66.60;;;;;;6091315;28;87982;-69
2023/03/16 01:44:21;;;;;;;4.88;4.38;;;22.00;66.60;;;;;;6091784;28;89447;-69
2023/03/16 01:47:24;;;;;;;4.63;4.22;;;21.90;66.50;;;;;;6085284;28;89499;-69
2023/03/16 01:50:27;;;;;;;5.45;4.75;;;22.00;66.60;;;;;;6080206;28;89004;-70
2023/03/16 01:53:32;;;;;;;5.22;4.57;;;22.00;66.60;;;;;;6094734;28;89103;-70
2023/03/16 01:56:38;;;;;;;4.30;3.90;;;22.00;66.60;;;;;;6085947;28;89179;-70
2023/03/16 01:59:45;;;;;;;4.60;4.20;;;21.90;66.50;;;;;;6095717;28;86314;-70
2023/03/16 02:02:55;;;;;;;4.18;3.78;;;21.90;66.60;;;;;;6077664;28;88939;-69
2023/03/16 02:06:02;;;;;;;4.75;4.25;;;21.90;66.60;;;;;;6083264;28;89008;-70
2023/03/16 02:09:05;;;;;;;4.00;3.70;;;21.90;66.60;;;;;;6073645;28;89955;-70
2023/03/16 02:12:16;;;;;;;5.32;4.18;;;21.90;66.60;;;;;;6095706;28;87895;-70
2023/03/16 02:15:19;;;;;;;4.55;4.05;;;21.90;66.60;;;;;;6094458;28;89211;-69
2023/03/16 02:18:22;;;;;;;4.97;4.47;;;21.90;66.60;;;;;;6085741;28;89124;-70
2023/03/16 02:21:32;;;;;;;3.95;3.63;;;21.90;66.60;;;;;;6107466;28;89082;-70
2023/03/16 02:24:34;;;;;;;4.35;3.67;;;21.90;66.60;;;;;;6085262;28;89054;-69
2023/03/16 02:27:45;;;;;;;3.67;3.38;;;21.90;66.60;;;;;;6089200;28;89112;-70
2023/03/16 02:30:50;;;;;;;4.20;3.80;;;21.90;66.60;;;;;;6102581;28;88278;-70
2023/03/16 02:33:54;;;;;;;4.43;3.88;;;21.90;66.60;;;;;;6082427;28;89099;-70
2023/03/16 02:36:57;;;;;;;4.07;3.70;;;21.80;66.50;;;;;;6077486;28;88691;-67
2023/03/16 02:39:59;;;;;;;3.72;3.42;;;21.90;66.60;;;;;;6077518;28;90288;-68
2023/03/16 02:43:03;;;;;;;5.35;4.03;;;21.80;66.50;;;;;;6080763;28;87998;-68
2023/03/16 02:46:08;;;;;;;4.05;3.55;;;21.80;66.60;;;;;;6084560;28;87939;-68
2023/03/16 02:49:17;;;;;;;3.97;3.58;;;21.80;66.60;;;;;;6082963;28;87986;-68
2023/03/16 02:52:19;;;;;;;3.97;3.25;;;21.80;66.60;;;;;;6081814;28;89122;-70
2023/03/16 02:55:21;;;;;;;3.83;3.53;;;21.80;66.60;;;;;;6087293;28;89108;-70
2023/03/16 02:58:23;;;;;;;3.60;3.30;;;21.80;66.60;;;;;;6084414;28;89078;-70
2023/03/16 03:01:27;;;;;;;3.83;3.53;;;21.80;66.60;;;;;;6081097;28;88421;-69
2023/03/16 03:04:29;;;;;;;3.90;3.50;;;21.80;66.50;;;;;;6082412;28;89067;-70
2023/03/16 03:07:31;;;;;;;3.58;3.28;;;21.80;66.50;;;;;;6079542;28;89407;-70
2023/03/16 03:10:33;;;;;;;3.72;3.42;;;21.80;67.40;;;;;;6081070;28;89016;-70
2023/03/16 03:13:37;;;;;;;3.72;3.38;;;21.80;66.50;;;;;;6089099;28;89148;-70
2023/03/16 03:16:40;;;;;;;4.07;3.67;;;21.80;66.50;;;;;;6080643;28;89212;-70
2023/03/16 03:19:42;;;;;;;3.45;3.15;;;21.80;66.60;;;;;;6072583;28;89160;-70
2023/03/16 03:22:46;;;;;;;3.55;3.08;;;21.80;66.60;;;;;;6086846;28;89012;-70
2023/03/16 03:25:48;;;;;;;3.55;3.20;;;21.80;66.70;;;;;;6080754;28;89200;-70
2023/03/16 03:28:51;;;;;;;3.60;3.30;;;21.70;66.60;;;;;;6089061;28;88949;-69
2023/03/16 03:31:54;;;;;;;3.30;3.00;;;21.70;66.60;;;;;;6088661;28;88224;-70
2023/03/16 03:34:56;;;;;;;4.80;3.47;;;21.70;66.60;;;;;;6076240;28;89048;-70
2023/03/16 03:37:58;;;;;;;3.25;2.95;;;21.70;66.50;;;;;;6077151;28;89731;-70
2023/03/16 03:41:00;;;;;;;3.30;3.00;;;21.80;66.60;;;;;;6086685;28;90065;-71
2023/03/16 03:44:04;;;;;;;3.47;3.17;;;21.70;66.50;;;;;;6086195;28;90071;-70
2023/03/16 03:47:07;;;;;;;3.05;2.75;;;21.70;66.60;;;;;;6076262;28;89420;-70
2023/03/16 03:50:11;;;;;;;3.08;2.78;;;21.70;66.60;;;;;;6081115;28;89139;-70
2023/03/16 03:53:13;;;;;;;2.92;2.60;;;21.70;66.60;;;;;;6086503;28;89311;-69
2023/03/16 03:56:15;;;;;;;3.05;2.75;;;21.70;66.60;;;;;;6087318;28;89422;-70
2023/03/16 03:59:17;;;;;;;3.38;2.90;;;21.70;66.60;;;;;;6093291;28;89109;-70
2023/03/16 04:02:21;;;;;;;3.38;3.08;;;21.70;66.60;;;;;;6093392;28;88366;-69
2023/03/16 04:05:26;;;;;;;2.88;2.55;;;21.70;66.60;;;;;;6087689;28;87895;-70
2023/03/16 04:08:28;;;;;;;2.83;2.60;;;21.70;66.70;;;;;;6086663;28;89422;-70
2023/03/16 04:11:30;;;;;;;2.75;2.50;;;21.70;66.60;;;;;;6076394;28;90448;-70
2023/03/16 04:14:32;;;;;;;2.90;2.58;;;21.70;66.60;;;;;;6086983;28;89121;-70
2023/03/16 04:17:35;;;;;;;2.67;2.47;;;21.70;66.60;;;;;;6087343;28;88959;-69
2023/03/16 04:20:37;;;;;;;2.65;2.45;;;21.70;66.60;;;;;;6093539;28;87952;-70
2023/03/16 04:23:41;;;;;;;2.70;2.50;;;21.70;66.60;;;;;;6091910;28;89091;-69
2023/03/16 04:26:44;;;;;;;2.65;2.45;;;21.70;66.60;;;;;;6077130;28;89125;-70
2023/03/16 04:29:46;;;;;;;2.58;2.38;;;21.70;66.60;;;;;;6087965;28;89290;-69
2023/03/16 04:32:50;;;;;;;3.92;2.75;;;21.70;66.50;;;;;;6088018;28;88368;-70
2023/03/16 04:35:53;;;;;;;2.95;2.55;;;21.70;66.40;;;;;;6086167;28;89180;-69
2023/03/16 04:38:55;;;;;;;2.65;2.45;;;21.70;66.50;;;;;;6087460;28;88852;-69
2023/03/16 04:41:57;;;;;;;2.90;2.60;;;21.70;66.40;;;;;;6078344;28;90282;-69
2023/03/16 04:44:59;;;;;;;2.53;2.33;;;21.70;66.40;;;;;;6085805;28;89161;-69
2023/03/16 04:48:02;;;;;;;2.63;2.42;;;21.60;66.30;;;;;;6086396;28;89158;-69
2023/03/16 04:51:05;;;;;;;2.53;2.33;;;21.70;66.30;;;;;;6086624;28;89413;-70
2023/03/16 04:54:07;;;;;;;2.60;2.40;;;21.70;66.20;;;;;;6086504;28;89156;-69
2023/03/16 04:57:09;;;;;;;2.85;2.40;;;21.70;66.20;;;;;;6086519;28;89104;-70
2023/03/16 05:00:17;;;;;;;3.03;2.50;;;21.70;66.20;;;;;;6085291;28;89158;-70
2023/03/16 05:03:21;;;;;;;2.40;2.17;;;21.70;66.20;;;;;;6075925;28;88257;-69
2023/03/16 05:06:23;;;;;;;2.20;2.03;;;21.70;66.20;;;;;;6085242;28;89140;-70
2023/03/16 05:09:25;;;;;;;2.10;1.90;;;21.70;66.20;;;;;;6079797;28;88957;-70
2023/03/16 05:12:27;;;;;;;2.58;2.35;;;21.70;66.10;;;;;;6080328;28;90010;-70
2023/03/16 05:15:29;;;;;;;2.20;2.00;;;21.70;66.20;;;;;;6088689;28;89027;-69
2023/03/16 05:18:33;;;;;;;2.35;2.15;;;21.80;66.20;;;;;;6083841;28;89237;-69
2023/03/16 05:21:36;;;;;;;3.08;2.22;;;21.80;66.20;;;;;;6076668;28;89054;-70
2023/03/16 05:24:38;;;;;;;2.30;2.10;;;21.70;66.20;;;;;;6086056;28;89447;-69
2023/03/16 05:27:40;;;;;;;2.35;2.15;;;21.70;67.10;;;;;;6086601;28;89114;-70
2023/03/16 05:30:43;;;;;;;2.50;2.10;;;21.80;66.20;;;;;;6086739;28;89092;-70
2023/03/16 05:33:47;;;;;;;2.17;1.98;;;21.80;66.20;;;;;;6086539;28;87577;-70
2023/03/16 05:36:49;;;;;;;2.40;2.13;;;21.80;66.10;;;;;;6085734;28;88360;-69
2023/03/16 05:39:51;;;;;;;2.13;1.92;;;21.80;66.10;;;;;;6079133;28;90281;-70
2023/03/16 05:42:56;;;;;;;2.38;2.00;;;21.80;66.10;;;;;;6067251;28;89958;-70
2023/03/16 05:45:58;;;;;;;3.53;2.38;;;21.80;66.10;;;;;;6084910;28;88045;-70
2023/03/16 05:49:01;;;;;;;2.60;2.05;;;21.80;66.10;;;;;;6085613;28;88016;-70
2023/03/16 05:52:04;;;;;;;2.47;2.22;;;21.80;66.00;;;;;;6086174;28;89108;-70
2023/03/16 05:55:08;;;;;;;3.20;2.20;;;21.80;66.00;;;;;;6075352;28;88951;-68
2023/03/16 05:58:10;;;;;;;4.63;2.50;;;21.80;65.90;;;;;;6082963;28;88085;-70
2023/03/16 06:01:14;;;;;;;3.35;2.53;;;21.80;66.60;;;;;;6073349;28;89031;-70
2023/03/16 06:04:17;;;;;;;2.72;2.42;;;21.90;68.90;;;;;;6080874;28;88513;-68
2023/03/16 06:07:19;;;;;;;2.92;2.30;;;22.00;69.90;;;;;;6085683;28;89121;-68
2023/03/16 06:10:22;;;;;;;2.38;2.13;;;22.10;69.30;;;;;;6069015;28;89501;-69
2023/03/16 06:13:24;;;;;;;2.60;2.10;;;22.10;67.60;;;;;;6081289;28;90312;-68
2023/03/16 06:16:26;;;;;;;3.78;2.22;;;22.20;67.10;;;;;;6096140;28;89026;-68
2023/03/16 06:19:30;;;;;;;2.60;2.13;;;22.20;66.80;;;;;;6072233;28;89037;-68
2023/03/16 06:22:32;;;;;;;2.60;2.20;;;22.30;66.70;;;;;;6076185;28;89227;-68
2023/03/16 06:25:34;;;;;;;2.88;2.20;;;22.30;66.60;;;;;;6068642;28;89478;-69
2023/03/16 06:28:36;;;;;;;2.38;2.03;;;22.30;66.60;;;;;;6074954;28;88041;-67
2023/03/16 06:31:38;;;;;;;2.90;2.13;;;22.30;66.60;;;;;;6074546;28;89029;-70
2023/03/16 06:34:42;;;;;;;2.05;1.85;;;22.30;66.60;;;;;;6065839;28;88301;-71
2023/03/16 06:37:44;;;;;;;2.20;2.00;;;22.30;66.50;;;;;;6081466;28;89142;-71
2023/03/16 06:40:46;;;;;;;2.30;2.00;;;22.40;66.60;;;;;;6072057;28;89075;-71
2023/03/16 06:43:48;;;;;;;2.30;2.05;;;22.30;66.20;;;;;;6078266;28;91029;-71
2023/03/16 06:46:50;;;;;;;2.20;2.00;;;22.30;66.10;;;;;;6084369;28;89443;-69
2023/03/16 06:49:54;;;;;;;2.20;1.88;;;22.30;66.10;;;;;;6083961;28;88802;-68
2023/03/16 06:52:56;;;;;;;2.33;2.00;;;22.30;66.00;;;;;;6074383;28;89146;-68
2023/03/16 06:55:58;;;;;;;2.85;2.22;;;22.30;66.00;;;;;;6077318;28;89065;-69
2023/03/16 06:59:00;;;;;;;3.35;2.20;;;22.30;66.00;;;;;;6075170;28;89261;-69
2023/03/16 07:02:02;;;;;;;2.72;2.30;;;22.30;66.00;;;;;;6070038;28;88960;-69
2023/03/16 07:05:06;;;;;;;2.15;1.85;;;22.30;66.00;;;;;;6076351;28;88232;-69
2023/03/16 07:08:09;;;;;;;2.47;1.90;;;22.30;66.00;;;;;;6083290;28;89390;-69
2023/03/16 07:11:11;;;;;;;2.25;2.03;;;22.40;66.10;;;;;;6076813;28;88987;-69
2023/03/16 07:14:13;;;;;;;1.90;1.70;;;22.30;66.00;;;;;;6081748;28;90361;-68
2023/03/16 07:17:15;;;;;;;2.17;1.83;;;22.40;66.10;;;;;;6084018;28;89339;-69
2023/03/16 07:20:18;;;;;;;2.60;2.00;;;22.40;66.10;;;;;;6089270;28;89079;-70
2023/03/16 07:23:21;;;;;;;2.78;1.90;;;22.30;66.00;;;;;;6084092;28;89117;-69
2023/03/16 07:26:23;;;;;;;2.80;2.03;;;22.30;66.00;;;;;;6070143;28;89069;-69
2023/03/16 07:29:25;;;;;;;2.75;2.08;;;22.40;66.10;;;;;;6081559;28;88324;-68
2023/03/16 07:32:27;;;;;;;2.45;1.85;;;22.40;66.10;;;;;;6084705;28;89090;-70
2023/03/16 07:35:30;;;;;;;1.95;1.73;;;22.40;66.10;;;;;;6083159;28;88422;-69
2023/03/16 07:38:33;;;;;;;2.40;2.05;;;22.40;66.10;;;;;;6083548;28;87988;-70
2023/03/16 07:41:35;;;;;;;2.88;1.98;;;22.40;66.10;;;;;;6084687;28;89133;-70
2023/03/16 07:44:37;;;;;;;2.22;1.88;;;22.40;66.20;;;;;;6082568;28;88928;-69
2023/03/16 07:47:39;;;;;;;2.85;2.17;;;22.40;66.10;;;;;;6084058;28;89224;-69
2023/03/16 07:50:42;;;;;;;3.13;2.20;;;22.40;66.20;;;;;;6075007;28;89077;-69
2023/03/16 07:53:44;;;;;;;2.35;1.98;;;22.40;66.20;;;;;;6074185;28;88992;-70
2023/03/16 07:56:46;;;;;;;2.65;1.83;;;22.40;66.40;;;;;;6078250;28;89082;-69
2023/03/16 07:59:48;;;;;;;3.50;2.20;;;22.50;66.70;;;;;;6085208;28;89026;-70
2023/03/16 08:02:52;;;;;;;4.05;2.22;;;22.50;66.70;;;;;;6085861;28;89346;-70
2023/03/16 08:05:56;;;;;;;4.28;1.98;;;22.50;66.70;;;;;;6088792;28;88440;-70
2023/03/16 08:08:59;;;;;;;2.97;2.25;;;22.50;66.70;;;;;;6073250;28;89000;-70
2023/03/16 08:12:01;;;;;;;2.55;2.20;;;22.50;66.70;;;;;;6087850;28;89356;-69
2023/03/16 08:15:04;;;;;;;3.22;2.10;;;22.50;66.70;;;;;;6091183;28;90066;-68
2023/03/16 08:18:07;;;;;;;2.67;2.10;;;22.50;66.60;;;;;;6093872;28;89122;-70
2023/03/16 08:21:10;;;;;;;3.65;2.28;;;22.50;66.60;;;;;;6087144;28;89336;-70
2023/03/16 08:24:12;;;;;;;4.57;1.83;;;22.50;66.70;;;;;;6076804;28;89415;-70
2023/03/16 08:27:14;;;;;;;2.25;1.90;;;22.50;66.70;;;;;;6073581;28;89011;-69
2023/03/16 08:30:17;;;;;;;3.67;2.00;;;22.50;66.70;;;;;;6083385;28;89187;-69
2023/03/16 08:33:19;;;;;;;3.10;2.20;;;22.50;66.70;;;;;;6086522;28;89076;-69
2023/03/16 08:36:23;;;;;;;3.35;2.13;;;22.60;66.80;;;;;;6086397;28;88743;-69
2023/03/16 08:39:26;;;;;;;3.85;2.20;;;22.60;66.80;;;;;;6089520;28;89167;-70
2023/03/16 08:42:28;;;;;;;2.75;2.10;;;22.60;66.80;;;;;;6075154;28;89329;-70
2023/03/16 08:45:32;;;;;;;2.65;2.03;;;22.60;66.90;;;;;;6076014;28;90190;-70
2023/03/16 08:48:35;;;;;;;4.63;2.33;;;22.60;66.90;;;;;;6085983;28;89331;-70
2023/03/16 08:51:38;;;;;;;2.92;1.98;;;22.60;66.90;;;;;;6079678;28;88738;-70
2023/03/16 08:54:42;;;;;;;2.95;2.20;;;22.60;66.90;;;;;;6078294;28;89072;-69
2023/03/16 08:57:45;;;;;;;3.20;1.98;;;22.60;66.90;;;;;;6076541;28;89481;-70
2023/03/16 09:00:47;;;;;;;4.50;2.05;;;22.60;66.90;;;;;;6076813;28;88687;-71
2023/03/16 09:03:50;;;;;;;2.40;1.90;;;22.60;66.90;;;;;;6092709;28;89287;-70
2023/03/16 09:06:53;;;;;;;2.15;1.90;;;22.60;66.90;;;;;;6079141;28;88624;-71
2023/03/16 09:09:55;;;;;;;3.00;1.92;;;22.60;66.90;;;;;;6085507;28;89164;-70
2023/03/16 09:12:58;;;;;;;2.95;1.80;;;22.60;66.90;;;;;;6081573;28;89128;-71
2023/03/16 09:16:00;;;;;;;4.05;2.05;;;22.60;66.90;;;;;;6085807;28;90080;-69
2023/03/16 09:19:02;;;;;;;5.63;2.50;;;22.60;67.00;;;;;;6085396;28;89220;-71
2023/03/16 09:22:05;;;;;;;7.20;2.67;;;22.60;67.10;;;;;;6084899;28;89899;-70
2023/03/16 09:25:09;;;;;;;5.07;2.45;;;22.60;67.10;;;;;;6080696;28;88244;-71
2023/03/16 09:28:11;;;;;;;3.85;2.15;;;22.60;67.10;;;;;;6082571;28;88956;-69
2023/03/16 09:31:17;;;;;;;5.25;2.50;;;22.60;67.10;;;;;;6077680;28;89122;-70
2023/03/16 09:34:20;;;;;;;3.10;2.15;;;22.60;67.10;;;;;;6085856;28;88753;-70
2023/03/16 09:37:23;;;;;;;3.92;2.13;;;22.70;67.10;;;;;;6079196;28;88350;-69
2023/03/16 09:40:27;;;;;;;4.22;2.25;;;22.70;67.10;;;;;;6081857;28;90167;-70
2023/03/16 09:44:06;;;;;;;3.33;2.33;;;22.60;67.00;;;;;;6074477;28;89086;-70
2023/03/16 09:47:10;;;;;;;3.15;1.85;;;22.70;67.10;;;;;;6074082;28;90075;-70
2023/03/16 09:50:21;;;;;;;2.53;2.00;;;22.60;67.10;;;;;;6084847;28;88957;-70
2023/03/16 09:53:28;;;;;;;2.80;2.10;;;22.70;68.00;;;;;;6084965;28;89414;-69
2023/03/16 09:56:36;;;;;;;2.78;1.95;;;22.70;67.10;;;;;;6083438;28;89027;-70
2023/03/16 09:59:38;;;;;;;3.05;2.03;;;22.60;67.10;;;;;;6082401;28;89159;-70
2023/03/16 10:02:53;;;;;;;3.00;2.13;;;22.70;67.10;;;;;;6080456;28;89136;-69
2023/03/16 10:05:59;;;;;;;2.15;1.80;;;22.70;67.10;;;;;;6077407;28;89343;-70
2023/03/16 10:09:15;;;;;;;2.78;1.90;;;22.70;67.10;;;;;;6083450;28;88337;-69
2023/03/16 10:12:18;;;;;;;2.97;1.88;;;22.70;67.10;;;;;;6083689;28;89172;-70
2023/03/16 10:15:27;;;;;;;2.53;1.77;;;22.70;67.00;;;;;;6085415;28;89053;-70
2023/03/16 10:18:33;;;;;;;2.88;2.00;;;22.70;67.10;;;;;;6083162;28;90310;-70
2023/03/16 10:21:40;;;;;;;4.57;2.00;;;22.70;67.00;;;;;;6077582;28;88310;-70
2023/03/16 10:24:52;;;;;;;2.55;2.00;;;22.70;67.00;;;;;;6075342;28;89085;-70
2023/03/16 10:27:56;;;;;;;3.80;1.85;;;22.70;67.00;;;;;;6080680;28;89047;-68
2023/03/16 10:31:02;;;;;;;3.30;1.92;;;22.70;67.10;;;;;;6081007;28;89162;-69
2023/03/16 10:34:06;;;;;;;2.05;1.70;;;22.70;67.00;;;;;;6084898;28;89174;-70
2023/03/16 10:37:14;;;;;;;3.38;2.10;;;22.70;67.00;;;;;;6084350;28;88135;-69
2023/03/16 10:40:19;;;;;;;3.05;2.15;;;22.70;67.00;;;;;;6081095;28;88325;-69
2023/03/16 10:43:21;;;;;;;2.55;1.73;;;22.70;67.00;;;;;;6073502;28;88973;-70
2023/03/16 10:46:26;;;;;;;2.67;1.92;;;22.70;67.00;;;;;;6084769;28;89298;-70
2023/03/16 10:49:29;;;;;;;4.35;2.40;;;22.70;67.00;;;;;;6084970;28;90157;-70
2023/03/16 10:52:35;;;;;;;3.08;1.75;;;22.70;67.00;;;;;;6084577;28;88859;-71
2023/03/16 10:55:49;;;;;;;3.72;2.22;;;22.70;67.00;;;;;;6083643;28;89444;-70
2023/03/16 10:58:52;;;;;;;3.65;2.10;;;22.70;67.00;;;;;;6076661;28;89114;-70
2023/03/16 11:01:55;;;;;;;2.60;1.80;;;22.70;67.00;;;;;;6075504;28;89139;-69
2023/03/16 11:04:58;;;;;;;2.20;1.70;;;22.70;67.00;;;;;;6084910;28;88002;-68
2023/03/16 11:08:08;;;;;;;3.17;1.70;;;22.70;67.10;;;;;;6081574;28;89477;-71
2023/03/16 11:11:16;;;;;;;3.40;2.65;;;22.70;67.30;;;;;;6072563;28;88672;-69
2023/03/16 11:14:22;;;;;;;2.90;2.13;;;22.80;67.60;;;;;;6081612;28;89062;-72
2023/03/16 11:17:34;;;;;;;4.95;3.60;;;22.80;67.90;;;;;;6083807;28;89230;-73
2023/03/16 11:20:37;;;;;;;5.28;4.88;;;22.80;77.60;;;;;;6067474;28;90303;-74
2023/03/16 11:23:43;;;;;;;4.00;3.63;;;22.90;84.70;;;;;;6076270;28;90724;-73
2023/03/16 11:26:58;;;;;;;3.35;2.60;;;23.10;85.80;;;;;;6076136;28;89098;-74
2023/03/16 11:30:08;;;;;;;5.05;4.55;;;23.20;80.70;;;;;;6074174;28;88021;-73
2023/03/16 11:33:13;;;;;;;4.60;3.60;;;23.30;79.90;;;;;;6072194;28;89639;-74
2023/03/16 11:36:30;;;;;;;3.65;2.90;;;23.40;75.80;;;;;;6067136;28;89144;-72
2023/03/16 11:39:39;;;;;;;2.75;2.50;;;23.70;72.70;;;;;;6078573;28;89250;-72
2023/03/16 11:42:55;;;;;;;3.80;3.05;;;23.90;72.20;;;;;;6077238;28;88384;-71
2023/03/16 11:46:10;;;;;;;3.75;2.70;;;24.00;70.50;;;;;;6081333;28;89484;-71
2023/03/16 11:49:34;;;;;;;3.95;2.40;;;24.00;70.00;;;;;;6086178;28;89028;-70
2023/03/16 11:52:46;;;;;;;3.10;2.67;;;23.90;69.40;;;;;;6079323;28;90216;-71
2023/03/16 11:56:00;;;;;;;3.83;2.58;;;23.90;69.10;;;;;;6086459;28;89139;-68
2023/03/16 11:59:21;;;;;;;5.40;2.63;;;23.90;68.90;;;;;;6089518;28;89267;-71
2023/03/16 12:02:34;;;;;;;3.47;2.40;;;23.80;69.10;;;;;;6076509;28;89372;-71
2023/03/16 12:05:54;;;;;;;2.83;2.30;;;23.80;69.30;;;;;;6088482;28;88325;-72
2023/03/16 12:09:14;;;;;;;5.10;2.10;;;23.80;69.10;;;;;;6086617;28;89112;-71
2023/03/16 12:12:27;;;;;;;2.90;2.10;;;23.70;68.80;;;;;;6073273;28;89063;-72
2023/03/16 12:15:43;;;;;;;2.47;2.25;;;23.70;68.60;;;;;;6084811;28;88790;-72
2023/03/16 12:18:50;;;;;;;3.38;2.05;;;23.70;68.40;;;;;;6082638;28;89142;-73
2023/03/16 12:22:03;;;;;;;2.53;1.92;;;23.70;68.20;;;;;;6080593;28;89152;-71
2023/03/16 12:25:14;;;;;;;2.30;2.10;;;23.70;68.10;;;;;;6081857;28;90167;-73
2023/03/16 12:28:23;;;;;;;2.45;1.90;;;23.70;67.90;;;;;;6073377;28;89598;-72
2023/03/16 12:31:37;;;;;;;3.28;2.17;;;23.70;67.90;;;;;;6083870;28;89289;-72
2023/03/16 12:34:46;;;;;;;2.40;1.90;;;23.70;67.70;;;;;;6079038;28;88404;-72
2023/03/16 12:37:58;;;;;;;3.00;2.35;;;23.70;67.60;;;;;;6080748;28;89433;-71
2023/03/16 12:41:09;;;;;;;3.03;2.10;;;23.60;67.60;;;;;;6085489;28;88981;-72
2023/03/16 12:44:16;;;;;;;2.30;2.00;;;23.60;67.60;;;;;;6079252;28;89032;-72
2023/03/16 12:47:28;;;;;;;2.53;2.03;;;23.60;67.40;;;;;;6086918;28;87605;-72
2023/03/16 12:50:30;;;;;;;2.38;1.85;;;23.60;67.50;;;;;;6075711;28;87978;-72
2023/03/16 12:53:42;;;;;;;2.10;1.75;;;23.60;67.40;;;;;;6085776;28;88341;-72
2023/03/16 12:56:47;;;;;;;1.88;1.52;;;23.50;67.30;;;;;;6085373;28;90018;-71
2023/03/16 12:59:50;;;;;;;2.28;1.70;;;23.50;67.30;;;;;;6085881;28;89078;-72
2023/03/16 13:02:56;;;;;;;2.25;1.50;;;23.50;67.30;;;;;;6073368;28;89064;-71
2023/03/16 13:06:02;;;;;;;2.67;1.88;;;23.40;67.10;;;;;;6086523;28;89310;-72
2023/03/16 13:09:06;;;;;;;2.00;1.60;;;23.40;67.20;;;;;;6085775;28;89485;-71
2023/03/16 13:12:09;;;;;;;2.30;1.30;;;23.40;67.30;;;;;;6076857;28;89147;-72
2023/03/16 13:15:30;;;;;;;2.03;1.60;;;23.40;67.20;;;;;;6085835;28;89372;-71
2023/03/16 13:18:40;;;;;;;2.63;1.65;;;23.30;67.30;;;;;;6076679;28;87136;-71
2023/03/16 13:21:43;;;;;;;1.88;1.50;;;23.30;67.40;;;;;;6087239;28;89070;-73
2023/03/16 13:24:51;;;;;;;3.08;1.80;;;23.30;67.30;;;;;;6078758;28;87961;-72
2023/03/16 13:27:57;;;;;;;1.85;1.63;;;23.30;67.40;;;;;;6085396;28;90160;-71
2023/03/16 13:31:01;;;;;;;1.60;1.40;;;23.30;67.40;;;;;;6085200;28;89089;-71
2023/03/16 13:34:08;;;;;;;2.00;1.40;;;23.30;67.50;;;;;;6075594;28;89176;-72
2023/03/16 13:37:15;;;;;;;1.70;1.48;;;23.30;67.40;;;;;;6085226;28;87950;-72
2023/03/16 13:40:21;;;;;;;3.35;2.05;;;23.30;68.40;;;;;;6082717;28;89134;-73
2023/03/16 13:43:27;;;;;;;1.77;1.50;;;23.20;67.40;;;;;;6078343;28;89052;-71
2023/03/16 13:46:30;;;;;;;1.77;1.40;;;23.20;67.40;;;;;;6098099;28;89113;-72
2023/03/16 13:49:34;;;;;;;1.58;1.40;;;23.20;67.40;;;;;;6082867;28;88543;-72
2023/03/16 13:52:36;;;;;;;2.35;1.58;;;23.20;67.40;;;;;;6084086;28;89145;-72
2023/03/16 13:55:39;;;;;;;2.22;1.60;;;23.20;67.40;;;;;;6085135;28;89472;-72
2023/03/16 13:58:45;;;;;;;2.13;1.45;;;23.10;67.40;;;;;;6084171;28;90127;-72
2023/03/16 14:01:48;;;;;;;1.50;1.40;;;23.20;67.40;;;;;;6079094;28;87914;-71
2023/03/16 14:04:52;;;;;;;1.42;1.33;;;23.20;67.40;;;;;;6084998;28;89067;-73
2023/03/16 14:07:55;;;;;;;1.40;1.30;;;23.20;67.40;;;;;;6080419;28;89004;-71
2023/03/16 14:10:58;;;;;;;2.20;1.70;;;23.10;67.50;;;;;;6082480;28;89628;-72
2023/03/16 14:14:01;;;;;;;1.95;1.63;;;23.20;67.40;;;;;;6084818;28;89023;-71
2023/03/16 14:17:08;;;;;;;1.63;1.38;;;23.20;67.30;;;;;;6083681;28;89271;-72
2023/03/16 14:20:19;;;;;;;1.95;1.40;;;23.20;67.40;;;;;;6080889;28;88374;-73
2023/03/16 14:23:24;;;;;;;1.35;1.20;;;23.20;67.30;;;;;;6084327;28;89094;-71
2023/03/16 14:26:26;;;;;;;1.95;1.50;;;23.10;67.30;;;;;;6073891;28;89150;-71
2023/03/16 14:29:30;;;;;;;2.00;1.60;;;23.20;67.40;;;;;;6084284;28;88947;-71
2023/03/16 14:32:33;;;;;;;2.47;1.60;;;23.10;67.40;;;;;;6083547;28;89093;-72
2023/03/16 14:35:43;;;;;;;2.80;1.42;;;23.10;67.40;;;;;;6084809;28;89564;-71
2023/03/16 14:38:47;;;;;;;1.67;1.40;;;23.10;67.40;;;;;;6084959;28;89520;-72
2023/03/16 14:41:50;;;;;;;2.15;1.20;;;23.10;67.40;;;;;;6076632;28;87993;-72
2023/03/16 14:44:52;;;;;;;1.33;1.13;;;23.10;67.40;;;;;;6079231;28;89388;-71
2023/03/16 14:47:54;;;;;;;1.77;1.30;;;23.10;67.40;;;;;;6084280;28;89262;-72
2023/03/16 14:51:00;;;;;;;1.73;1.30;;;23.10;67.40;;;;;;6084835;28;88583;-72
2023/03/16 14:54:02;;;;;;;2.88;1.50;;;23.10;67.40;;;;;;6084348;28;89101;-70
2023/03/16 14:57:05;;;;;;;1.42;1.20;;;23.10;67.30;;;;;;6085388;28;89114;-71
2023/03/16 15:00:10;;;;;;;1.40;1.30;;;23.10;67.30;;;;;;6076436;28;89930;-73
2023/03/16 15:03:15;;;;;;;1.60;1.40;;;23.10;67.30;;;;;;6079223;28;89085;-72
2023/03/16 15:06:19;;;;;;;1.40;1.23;;;23.10;67.40;;;;;;6087504;28;89143;-72
2023/03/16 15:09:34;;;;;;;1.50;1.20;;;23.20;67.40;;;;;;6078418;28;89193;-72
2023/03/16 15:12:36;;;;;;;1.48;1.10;;;23.10;67.30;;;;;;6085151;28;89482;-71
2023/03/16 15:15:39;;;;;;;2.03;1.30;;;23.10;67.20;;;;;;6087522;28;87983;-71
2023/03/16 15:18:41;;;;;;;1.50;1.20;;;23.10;67.20;;;;;;6088290;28;89128;-72
2023/03/16 15:21:45;;;;;;;1.17;1.08;;;23.20;67.30;;;;;;6086546;28;88410;-72
2023/03/16 15:24:47;;;;;;;2.35;1.30;;;23.10;67.10;;;;;;6087206;28;89134;-72
2023/03/16 15:27:50;;;;;;;1.55;1.23;;;23.10;67.10;;;;;;6087710;28;89376;-71
2023/03/16 15:30:53;;;;;;;2.33;1.15;;;23.20;67.20;;;;;;6075987;28;90020;-71
2023/03/16 15:33:55;;;;;;;1.88;1.20;;;23.10;67.10;;;;;;6087802;28;89030;-71
2023/03/16 15:36:59;;;;;;;1.75;1.20;;;23.10;67.10;;;;;;6087901;28;89445;-72
2023/03/16 15:40:01;;;;;;;1.52;1.20;;;23.20;67.20;;;;;;6087575;28;89438;-73
2023/03/16 15:43:03;;;;;;;1.20;1.10;;;23.20;67.10;;;;;;6075339;28;89090;-72
2023/03/16 15:46:06;;;;;;;1.58;1.10;;;23.10;67.00;;;;;;6087877;28;89225;-72
2023/03/16 15:49:08;;;;;;;2.95;1.70;;;23.10;67.00;;;;;;6086221;28;89332;-71
2023/03/16 15:52:23;;;;;;;1.27;1.15;;;23.10;66.90;;;;;;6087618;28;88350;-72
2023/03/16 15:55:33;;;;;;;1.55;1.17;;;23.10;66.90;;;;;;6077662;28;89146;-71
2023/03/16 15:58:37;;;;;;;2.13;1.25;;;23.10;66.80;;;;;;6088008;28;89168;-72
2023/03/16 16:01:44;;;;;;;1.20;1.08;;;23.10;66.70;;;;;;6077930;28;92308;-71